createdAt,value
2022-12-24T00:00:10.185Z,99511.25
2022-12-24T00:01:20.190Z,99514.05
2022-12-24T00:02:30.007Z,99506.17
2022-12-24T00:03:39.353Z,99498.45
2022-12-24T00:04:48.307Z,99498.98
2022-12-24T00:05:57.087Z,99500.80
2022-12-24T00:07:06.789Z,99499.16
2022-12-24T00:08:15.457Z,99498.55
2022-12-24T00:09:24.225Z,99503.28
2022-12-24T00:10:33.898Z,99501.55
2022-12-24T00:11:42.612Z,99491.84
2022-12-24T00:12:52.164Z,99499.20
2022-12-24T00:14:01.263Z,99488.06
2022-12-24T00:15:10.759Z,99491.97
2022-12-24T00:16:21.104Z,99497.55
2022-12-24T00:17:30.468Z,99495.91
2022-12-24T00:18:45.451Z,99489.92
2022-12-24T00:19:50.133Z,99493.59
2022-12-24T00:21:00.123Z,99489.30
2022-12-24T00:22:09.238Z,99497.36
2022-12-24T00:23:18.840Z,99493.14
2022-12-24T00:24:27.446Z,99496.81
2022-12-24T00:25:37.966Z,99496.02
2022-12-24T00:26:46.994Z,99497.75
2022-12-24T00:27:57.663Z,99489.85
2022-12-24T00:29:08.257Z,99496.91
2022-12-24T00:30:17.082Z,99497.83
2022-12-24T00:31:26.940Z,99499.02
2022-12-24T00:32:39.351Z,99491.97
2022-12-24T00:33:50.267Z,99491.89
2022-12-24T00:34:59.266Z,99490.25
2022-12-24T00:36:09.308Z,99488.47
2022-12-24T00:37:17.858Z,99484.53
2022-12-24T00:38:26.387Z,99491.07
2022-12-24T00:39:35.443Z,99480.13
2022-12-24T00:40:44.547Z,99487.31
2022-12-24T00:41:53.648Z,99485.75
2022-12-24T00:43:02.445Z,99492.97
2022-12-24T00:44:11.588Z,99492.13
2022-12-24T00:45:21.259Z,99493.98
2022-12-24T00:46:32.175Z,99491.33
2022-12-24T00:47:41.856Z,99490.56
2022-12-24T00:48:51.709Z,99493.45
2022-12-24T00:51:16.144Z,99487.99
2022-12-24T00:52:25.995Z,99487.84
2022-12-24T00:53:35.103Z,99482.61
2022-12-24T00:54:44.739Z,99486.28
2022-12-24T00:55:53.642Z,99476.74
2022-12-24T00:57:03.266Z,99480.58
2022-12-24T00:58:12.720Z,99473.16
2022-12-24T00:59:22.565Z,99477.13
2022-12-24T01:00:31.292Z,99467.73
2022-12-24T01:01:40.837Z,99470.51
2022-12-24T01:02:51.318Z,99474.32
2022-12-24T01:04:18.972Z,99468.30
2022-12-24T01:05:29.051Z,99466.17
2022-12-24T01:06:37.576Z,99463.37
2022-12-24T01:07:47.376Z,99465.06
2022-12-24T01:08:55.969Z,99466.27
2022-12-24T01:10:07.334Z,99464.97
2022-12-24T01:11:16.252Z,99454.83
2022-12-24T01:12:26.249Z,99463.15
2022-12-24T01:13:36.568Z,99462.53
2022-12-24T01:14:46.136Z,99453.25
2022-12-24T01:15:56.215Z,99462.42
2022-12-24T01:17:05.915Z,99461.00
2022-12-24T01:18:15.491Z,99464.77
2022-12-24T01:19:24.101Z,99464.25
2022-12-24T01:20:33.211Z,99470.80
2022-12-24T01:21:42.464Z,99463.16
2022-12-24T01:22:53.082Z,99470.50
2022-12-24T01:24:02.845Z,99471.59
2022-12-24T01:25:12.040Z,99465.68
2022-12-24T01:26:21.168Z,99467.63
2022-12-24T01:27:30.594Z,99470.44
2022-12-24T01:28:40.657Z,99474.95
2022-12-24T01:29:53.226Z,99472.30
2022-12-24T01:31:02.165Z,99472.86
2022-12-24T01:32:12.018Z,99475.69
2022-12-24T01:33:22.162Z,99467.13
2022-12-24T01:34:31.224Z,99467.37
2022-12-24T01:36:57.743Z,99474.63
2022-12-24T01:38:07.855Z,99470.77
2022-12-24T01:39:16.907Z,99473.56
2022-12-24T01:40:45.613Z,99474.02
2022-12-24T01:42:12.547Z,99472.91
2022-12-24T01:43:25.747Z,99465.27
2022-12-24T01:44:37.901Z,99469.80
2022-12-24T01:45:53.239Z,99470.05
2022-12-24T01:47:23.581Z,99472.17
2022-12-24T01:48:42.736Z,99465.92
2022-12-24T01:49:56.066Z,99468.95
2022-12-24T01:51:29.930Z,99472.15
2022-12-24T06:24:00.122Z,99455.28
2022-12-24T06:26:24.728Z,99456.36
2022-12-24T06:27:33.773Z,99459.10
2022-12-24T06:28:44.937Z,99461.05
2022-12-24T06:29:53.581Z,99453.24
2022-12-24T06:31:04.689Z,99452.34
2022-12-24T06:32:13.490Z,99446.92
2022-12-24T06:33:22.608Z,99446.84
2022-12-24T06:34:31.260Z,99447.64
2022-12-24T06:36:55.534Z,99435.08
2022-12-24T06:38:04.543Z,99445.48
2022-12-24T06:39:14.348Z,99459.61
2022-12-24T06:40:23.503Z,99463.51
2022-12-24T06:41:32.628Z,99457.71
2022-12-24T06:42:41.178Z,99460.78
2022-12-24T06:43:53.016Z,99450.13
2022-12-24T06:45:08.114Z,99454.80
2022-12-24T06:46:15.188Z,99452.70
2022-12-24T06:47:24.356Z,99454.42
2022-12-24T06:48:33.026Z,99453.70
2022-12-24T06:49:42.804Z,99461.15
2022-12-24T06:50:52.640Z,99460.67
2022-12-24T06:52:02.174Z,99463.70
2022-12-24T06:53:10.847Z,99466.80
2022-12-24T06:54:19.379Z,99462.41
2022-12-24T06:55:28.425Z,99461.65
2022-12-24T06:56:38.136Z,99460.28
2022-12-24T06:57:48.395Z,99457.53
2022-12-24T06:59:03.163Z,99471.42
2022-12-24T07:00:10.620Z,99456.33
2022-12-24T07:01:20.745Z,99459.92
2022-12-24T07:02:29.847Z,99464.64
2022-12-24T07:03:38.993Z,99454.33
2022-12-24T07:04:48.754Z,99462.16
2022-12-24T07:05:59.630Z,99456.65
2022-12-24T07:07:08.532Z,99455.80
2022-12-24T07:09:33.255Z,99457.08
2022-12-24T07:10:42.095Z,99461.64
2022-12-24T07:11:51.569Z,99458.22
2022-12-24T07:13:01.113Z,99471.61
2022-12-24T07:15:25.317Z,99458.53
2022-12-24T07:16:35.630Z,99480.63
2022-12-24T07:17:44.499Z,99471.24
2022-12-24T07:18:53.899Z,99467.03
2022-12-24T07:20:05.154Z,99467.55
2022-12-24T07:21:14.413Z,99475.02
2022-12-24T07:22:23.333Z,99477.27
2022-12-24T07:23:32.295Z,99479.84
2022-12-24T07:27:17.555Z,99466.80
2022-12-24T07:28:28.253Z,99473.75
2022-12-24T07:29:37.314Z,99471.36
2022-12-24T07:30:48.043Z,99465.67
2022-12-24T07:31:58.773Z,99465.85
2022-12-24T07:33:08.993Z,99469.27
2022-12-24T07:34:19.625Z,99469.70
2022-12-24T07:35:29.048Z,99469.11
2022-12-24T07:36:38.150Z,99470.30
2022-12-24T07:37:46.871Z,99471.16
2022-12-24T07:38:56.861Z,99467.03
2022-12-24T07:40:10.036Z,99464.78
2022-12-24T07:41:19.171Z,99463.60
2022-12-24T07:42:28.288Z,99465.14
2022-12-24T07:43:37.311Z,99471.82
2022-12-24T07:44:47.061Z,99468.31
2022-12-24T07:45:57.497Z,99469.34
2022-12-24T07:47:06.734Z,99473.88
2022-12-24T07:48:16.347Z,99468.93
2022-12-24T07:49:29.242Z,99465.91
2022-12-24T07:50:38.104Z,99467.97
2022-12-24T07:51:47.546Z,99474.33
2022-12-24T07:52:56.985Z,99484.13
2022-12-24T07:54:06.327Z,99478.72
2022-12-24T07:55:16.287Z,99472.36
2022-12-24T07:57:42.174Z,99478.77
2022-12-24T07:58:51.561Z,99488.25
2022-12-24T08:00:01.703Z,99482.92
2022-12-24T08:01:13.412Z,99480.26
2022-12-24T08:03:37.692Z,99474.92
2022-12-24T08:04:47.368Z,99477.13
2022-12-24T08:05:58.150Z,99474.31
2022-12-24T08:07:07.436Z,99472.34
2022-12-24T08:08:17.411Z,99461.91
2022-12-24T08:11:03.338Z,99461.50
2022-12-24T08:12:12.063Z,99468.63
2022-12-24T08:13:20.841Z,99463.45
2022-12-24T08:14:32.388Z,99462.80
2022-12-24T08:16:50.462Z,99470.78
2022-12-24T08:19:16.100Z,99466.90
2022-12-24T08:20:25.658Z,99466.77
2022-12-24T08:21:34.310Z,99461.69
2022-12-24T08:23:58.591Z,99446.11
2022-12-24T08:25:09.118Z,99462.13
2022-12-24T08:26:19.435Z,99451.71
2022-12-24T08:27:28.122Z,99451.20
2022-12-24T08:29:46.273Z,99447.09
2022-12-24T08:30:56.575Z,99456.98
2022-12-24T08:32:06.613Z,99456.20
2022-12-24T08:33:22.806Z,99451.06
2022-12-24T08:34:31.463Z,99455.53
2022-12-24T08:35:40.606Z,99450.97
2022-12-24T08:36:53.063Z,99439.38
2022-12-24T08:38:02.160Z,99442.04
2022-12-24T08:39:10.781Z,99443.58
2022-12-24T08:40:19.765Z,99449.51
2022-12-24T08:41:29.213Z,99453.72
2022-12-24T08:42:37.824Z,99446.57
2022-12-24T08:45:02.129Z,99440.56
2022-12-24T08:46:11.266Z,99451.80
2022-12-24T08:47:20.380Z,99449.23
2022-12-24T08:48:29.119Z,99444.84
2022-12-24T08:50:51.926Z,99449.42
2022-12-24T08:52:00.914Z,99437.98
2022-12-24T08:54:26.862Z,99430.25
2022-12-24T08:55:36.322Z,99432.56
2022-12-24T08:56:45.379Z,99435.73
2022-12-24T08:57:53.905Z,99437.90
2022-12-24T09:00:13.093Z,99437.84
2022-12-24T09:02:37.428Z,99431.78
2022-12-24T09:03:47.761Z,99438.72
2022-12-24T09:04:56.969Z,99432.60
2022-12-24T09:06:08.228Z,99440.69
2022-12-24T09:09:41.304Z,99449.28
2022-12-24T09:10:50.854Z,99457.90
2022-12-24T09:12:00.621Z,99453.51
2022-12-24T09:13:09.146Z,99437.62
2022-12-24T09:15:29.975Z,99448.88
2022-12-24T09:16:39.567Z,99444.14
2022-12-24T09:19:03.595Z,99434.19
2022-12-24T09:20:14.270Z,99443.86
2022-12-24T09:22:40.450Z,99438.18
2022-12-24T09:23:49.263Z,99439.75
2022-12-24T09:24:59.043Z,99444.23
2022-12-24T09:26:12.365Z,99442.41
2022-12-24T09:28:38.710Z,99434.52
2022-12-24T09:29:49.884Z,99454.02
2022-12-24T09:32:16.310Z,99439.56
2022-12-24T09:33:26.704Z,99449.06
2022-12-24T09:34:35.259Z,99452.76
2022-12-24T09:35:44.763Z,99454.58
2022-12-24T09:38:12.522Z,99454.48
2022-12-24T09:39:21.171Z,99448.28
2022-12-24T09:40:39.254Z,99455.23
2022-12-24T09:42:00.846Z,99453.92
2022-12-24T09:43:20.275Z,99454.08
2022-12-24T09:44:47.658Z,99451.23
2022-12-24T09:46:20.109Z,99456.61
2022-12-24T09:47:32.781Z,99459.19
2022-12-24T09:50:04.364Z,99452.34
2022-12-24T09:51:28.959Z,99451.27
2022-12-24T09:52:41.213Z,99451.57
2022-12-24T09:53:59.893Z,99448.22
2022-12-24T09:57:41.422Z,99455.67
2022-12-24T11:06:24.397Z,99469.70
2022-12-24T11:07:34.235Z,99480.53
2022-12-24T11:10:08.556Z,99466.39
2022-12-24T11:12:40.772Z,99465.30
2022-12-24T11:13:54.405Z,99476.45
2022-12-24T11:15:20.133Z,99465.36
2022-12-24T11:18:02.766Z,99466.53
2022-12-24T11:20:35.615Z,99472.19
2022-12-24T11:21:45.921Z,99470.08
2022-12-24T11:22:56.458Z,99473.48
2022-12-24T11:25:32.645Z,99475.09
2022-12-24T11:26:45.191Z,99462.89
2022-12-24T11:27:55.262Z,99471.96
2022-12-24T11:30:26.366Z,99472.63
2022-12-24T11:31:39.031Z,99481.44
2022-12-24T11:34:31.057Z,99472.80
2022-12-24T11:35:44.333Z,99466.46
2022-12-24T11:38:13.918Z,99474.38
2022-12-24T11:40:44.276Z,99469.81
2022-12-24T11:41:54.645Z,99470.80
2022-12-24T11:43:14.352Z,99476.55
2022-12-24T11:45:37.720Z,99478.06
2022-12-24T11:48:07.931Z,99481.97
2022-12-24T11:49:24.899Z,99492.45
2022-12-24T11:54:02.187Z,99488.94
2022-12-24T11:56:40.534Z,99481.50
2022-12-24T11:59:25.848Z,99487.79
2022-12-24T12:02:11.767Z,99490.06
2022-12-24T12:04:52.137Z,99484.45
2022-12-24T12:07:26.704Z,99488.91
2022-12-24T12:08:38.240Z,99495.11
2022-12-24T12:11:47.414Z,99480.42
2022-12-24T12:13:08.615Z,99487.20
2022-12-24T12:17:35.729Z,99492.18
2022-12-24T12:19:00.036Z,99491.13
2022-12-24T12:20:27.694Z,99499.97
2022-12-24T12:23:16.548Z,99483.09
2022-12-24T12:26:08.943Z,99483.77
2022-12-24T12:29:08.565Z,99495.40
2022-12-24T12:30:22.286Z,99492.55
2022-12-24T12:31:37.228Z,99493.48
2022-12-24T12:34:46.705Z,99492.92
2022-12-24T12:35:57.493Z,99496.26
2022-12-24T12:37:16.574Z,99495.41
2022-12-24T12:38:31.248Z,99504.36
2022-12-24T12:39:40.436Z,99500.75
2022-12-24T12:40:52.871Z,99509.50
2022-12-24T12:42:35.077Z,99512.08
2022-12-24T12:44:04.617Z,99504.06
2022-12-24T12:45:30.106Z,99506.57
2022-12-24T12:46:54.458Z,99513.70
2022-12-24T12:51:02.289Z,99504.38
2022-12-24T12:53:48.455Z,99510.56
2022-12-24T12:55:24.435Z,99517.41
2022-12-24T12:56:35.589Z,99517.25
2022-12-24T12:59:06.184Z,99514.08
2022-12-24T13:01:49.870Z,99514.95
2022-12-24T13:04:27.953Z,99516.10
2022-12-24T13:05:54.039Z,99522.20
2022-12-24T13:10:58.566Z,99533.36
2022-12-24T13:12:16.668Z,99533.23
2022-12-24T13:13:55.541Z,99533.52
2022-12-24T13:20:19.143Z,99526.66
2022-12-24T13:21:29.893Z,99537.13
2022-12-24T13:24:18.631Z,99522.65
2022-12-24T13:25:51.283Z,99532.23
2022-12-24T13:27:19.499Z,99542.16
2022-12-24T13:30:09.618Z,99539.20
2022-12-24T13:31:23.338Z,99540.81
2022-12-24T13:33:59.548Z,99549.88
2022-12-24T13:35:32.052Z,99552.33
2022-12-24T13:41:41.124Z,99542.91
2022-12-24T13:43:05.940Z,99544.52
2022-12-24T13:45:40.196Z,99549.56
2022-12-24T13:48:33.130Z,99547.19
2022-12-24T13:51:21.738Z,99549.16
2022-12-24T13:52:31.530Z,99556.94
2022-12-24T13:53:46.676Z,99555.12
2022-12-24T13:55:01.224Z,99554.27
2022-12-24T13:57:45.152Z,99559.83
2022-12-24T14:00:22.640Z,99553.64
2022-12-24T14:03:05.869Z,99558.19
2022-12-24T14:05:55.446Z,99552.86
2022-12-24T14:07:05.828Z,99558.84
2022-12-24T14:08:26.887Z,99563.39
2022-12-24T14:09:36.221Z,99557.31
2022-12-24T14:11:13.453Z,99570.70
2022-12-24T14:13:54.204Z,99566.75
2022-12-24T14:15:23.400Z,99574.48
2022-12-24T14:16:50.770Z,99574.58
2022-12-24T14:18:01.093Z,99573.64
2022-12-24T14:20:38.988Z,99582.66
2022-12-24T14:23:32.237Z,99578.95
2022-12-24T14:26:03.487Z,99578.05
2022-12-24T14:27:41.146Z,99582.79
2022-12-24T14:28:59.999Z,99588.13
2022-12-24T14:30:18.676Z,99580.31
2022-12-24T14:31:28.641Z,99588.31
2022-12-24T14:34:13.719Z,99586.90
2022-12-24T14:35:38.053Z,99591.92
2022-12-24T14:36:49.233Z,99599.07
2022-12-24T14:39:24.560Z,99596.72
2022-12-24T14:42:20.347Z,99596.63
2022-12-24T14:46:55.617Z,99601.17
2022-12-24T14:49:33.521Z,99617.27
2022-12-24T14:51:08.249Z,99611.70
2022-12-24T14:54:08.771Z,99612.81
2022-12-24T14:55:33.225Z,99619.70
2022-12-24T14:56:47.570Z,99619.70
2022-12-24T14:58:26.229Z,99615.31
2022-12-24T14:59:41.517Z,99625.98
2022-12-24T15:00:52.324Z,99628.73
2022-12-24T15:02:04.161Z,99625.31
2022-12-24T15:04:30.850Z,99626.30
2022-12-24T15:05:40.071Z,99628.64
2022-12-24T15:06:52.487Z,99633.13
2022-12-24T15:08:04.083Z,99626.86
2022-12-24T15:10:44.100Z,99623.20
2022-12-24T15:11:56.610Z,99623.82
2022-12-24T15:14:27.390Z,99627.75
2022-12-24T15:15:36.999Z,99637.34
2022-12-24T15:19:41.301Z,99643.75
2022-12-24T15:20:56.146Z,99644.40
2022-12-24T15:22:07.923Z,99647.81
2022-12-24T15:23:33.833Z,99644.31
2022-12-24T15:24:47.835Z,99644.22
2022-12-24T15:27:37.042Z,99637.38
2022-12-24T15:28:46.447Z,99640.70
2022-12-24T15:29:58.021Z,99645.16
2022-12-24T15:31:16.118Z,99647.73
2022-12-24T15:32:26.135Z,99651.27
2022-12-24T15:34:55.127Z,99650.72
2022-12-24T15:37:30.963Z,99640.75
2022-12-24T15:38:44.757Z,99649.36
2022-12-24T15:39:56.683Z,99644.97
2022-12-24T15:41:20.592Z,99651.27
2022-12-24T15:42:30.534Z,99646.88
2022-12-24T15:43:41.487Z,99654.19
2022-12-24T15:45:15.144Z,99655.21
2022-12-24T15:46:26.823Z,99651.88
2022-12-24T15:47:38.872Z,99649.64
2022-12-24T15:48:51.175Z,99654.30
2022-12-24T15:50:00.896Z,99645.61
2022-12-24T15:51:10.505Z,99651.13
2022-12-24T15:52:24.558Z,99654.72
2022-12-24T15:53:38.704Z,99649.48
2022-12-24T15:54:53.837Z,99655.75
2022-12-24T15:56:03.918Z,99651.39
2022-12-24T15:57:24.724Z,99650.52
2022-12-24T15:58:37.583Z,99659.39
2022-12-24T15:59:56.495Z,99657.39
2022-12-24T16:02:40.205Z,99651.09
2022-12-24T16:03:52.757Z,99654.70
2022-12-24T16:05:23.358Z,99652.95
2022-12-24T16:08:06.957Z,99646.28
2022-12-24T16:10:50.983Z,99650.08
2022-12-24T16:12:03.377Z,99653.46
2022-12-24T16:13:18.049Z,99654.50
2022-12-24T16:14:28.217Z,99661.80
2022-12-24T16:17:19.231Z,99657.07
2022-12-24T16:20:09.532Z,99652.86
2022-12-24T16:22:57.818Z,99656.23
2022-12-24T16:24:20.984Z,99659.70
2022-12-24T16:26:45.463Z,99655.16
2022-12-24T16:29:12.433Z,99657.30
2022-12-24T16:30:22.783Z,99661.60
2022-12-24T16:31:36.290Z,99659.03
2022-12-24T16:35:41.063Z,99652.48
2022-12-24T16:36:50.208Z,99655.75
2022-12-24T16:38:00.553Z,99660.33
2022-12-24T16:40:41.225Z,99661.42
2022-12-24T16:42:14.868Z,99655.57
2022-12-24T16:43:42.477Z,99658.67
2022-12-24T16:44:55.324Z,99658.67
2022-12-24T16:46:06.759Z,99663.02
2022-12-24T16:48:38.347Z,99656.95
2022-12-24T16:49:46.896Z,99668.25
2022-12-24T16:53:32.594Z,99671.77
2022-12-24T16:54:41.580Z,99677.91
2022-12-24T16:57:07.296Z,99670.78
2022-12-24T16:58:18.694Z,99677.84
2022-12-24T16:59:27.286Z,99686.97
2022-12-24T17:00:36.827Z,99678.27
2022-12-24T17:03:02.284Z,99678.52
2022-12-24T17:04:12.025Z,99685.33
2022-12-24T17:06:37.734Z,99681.18
2022-12-24T17:07:46.656Z,99686.36
2022-12-24T17:10:15.125Z,99685.06
2022-12-24T17:11:24.362Z,99684.91
2022-12-24T17:13:47.713Z,99685.33
2022-12-24T17:16:11.328Z,99682.76
2022-12-24T17:17:29.951Z,99685.17
2022-12-24T17:19:55.709Z,99687.30
2022-12-24T17:21:06.228Z,99687.05
2022-12-24T17:23:30.807Z,99686.45
2022-12-24T17:24:40.299Z,99691.09
2022-12-24T17:25:49.957Z,99697.55
2022-12-24T17:26:59.511Z,99695.97
2022-12-24T17:28:09.256Z,99704.58
2022-12-24T17:30:34.024Z,99700.51
2022-12-24T17:31:42.701Z,99700.27
2022-12-24T17:32:52.257Z,99690.58
2022-12-24T17:34:01.141Z,99700.36
2022-12-24T17:36:26.669Z,99689.36
2022-12-24T17:37:35.310Z,99691.19
2022-12-24T17:38:44.564Z,99694.97
2022-12-24T17:41:11.822Z,99689.97
2022-12-24T17:43:35.753Z,99695.39
2022-12-24T17:46:01.393Z,99699.36
2022-12-24T17:47:10.901Z,99694.88
2022-12-24T17:48:20.238Z,99706.48
2022-12-24T17:50:44.488Z,99706.66
2022-12-24T17:51:53.311Z,99701.77
2022-12-24T17:53:02.615Z,99709.31
2022-12-24T17:54:12.547Z,99710.55
2022-12-24T17:56:39.495Z,99707.48
2022-12-24T17:57:48.927Z,99704.05
2022-12-24T17:58:58.487Z,99716.78
2022-12-24T18:00:09.280Z,99716.12
2022-12-24T18:02:34.764Z,99713.88
2022-12-24T18:03:45.586Z,99722.69
2022-12-24T18:06:11.833Z,99723.10
2022-12-24T18:07:20.568Z,99730.12
2022-12-24T18:08:29.735Z,99727.61
2022-12-24T18:09:40.956Z,99722.45
2022-12-24T18:10:50.851Z,99719.03
2022-12-24T18:12:01.024Z,99725.49
2022-12-24T18:13:15.735Z,99725.73
2022-12-24T18:14:22.777Z,99728.48
2022-12-24T18:15:38.559Z,99726.19
2022-12-24T18:18:06.060Z,99723.25
2022-12-24T18:19:15.894Z,99724.03
2022-12-24T18:20:25.546Z,99729.45
2022-12-24T18:22:49.486Z,99719.22
2022-12-24T18:23:58.512Z,99730.48
2022-12-24T18:25:08.618Z,99731.52
2022-12-24T18:26:19.343Z,99732.48
2022-12-24T18:27:28.624Z,99723.69
2022-12-24T18:28:39.309Z,99729.11
2022-12-24T18:29:48.926Z,99731.95
2022-12-24T18:32:18.535Z,99734.18
2022-12-24T18:33:28.993Z,99739.25
2022-12-24T18:34:39.315Z,99736.50
2022-12-24T18:35:48.850Z,99743.65
2022-12-24T18:36:57.525Z,99742.80
2022-12-24T18:39:21.151Z,99748.13
2022-12-24T18:41:45.055Z,99751.58
2022-12-24T18:42:54.115Z,99747.08
2022-12-24T18:44:03.282Z,99755.16
2022-12-24T18:45:12.148Z,99748.28
2022-12-24T18:46:27.644Z,99744.15
2022-12-24T18:48:55.143Z,99748.89
2022-12-24T18:50:05.304Z,99748.72
2022-12-24T18:51:15.081Z,99753.17
2022-12-24T18:52:23.690Z,99751.39
2022-12-24T18:54:50.015Z,99749.85
2022-12-24T18:57:25.830Z,99752.83
2022-12-24T18:58:38.372Z,99760.32
2022-12-24T18:59:47.033Z,99761.20
2022-12-24T19:02:10.967Z,99762.75
2022-12-24T19:03:19.791Z,99765.41
2022-12-24T19:04:29.080Z,99767.41
2022-12-24T19:05:38.008Z,99763.95
2022-12-24T19:06:52.716Z,99762.30
2022-12-24T19:07:57.397Z,99766.03
2022-12-24T19:09:06.377Z,99765.33
2022-12-24T19:10:15.335Z,99768.08
2022-12-24T19:11:24.844Z,99767.29
2022-12-24T19:12:34.884Z,99770.98
2022-12-24T19:13:47.641Z,99772.27
2022-12-24T19:14:56.407Z,99771.52
2022-12-24T19:16:07.273Z,99782.17
2022-12-24T19:17:16.065Z,99778.63
2022-12-24T19:18:24.842Z,99783.28
2022-12-24T19:20:48.609Z,99785.95
2022-12-24T19:21:57.107Z,99783.81
2022-12-24T19:24:24.593Z,99785.87
2022-12-24T19:25:35.136Z,99782.00
2022-12-24T19:26:45.119Z,99790.94
2022-12-24T19:27:53.762Z,99794.48
2022-12-24T19:29:02.408Z,99792.31
2022-12-24T19:30:13.244Z,99799.91
2022-12-24T19:31:32.675Z,99796.56
2022-12-24T19:32:41.385Z,99796.15
2022-12-24T19:33:53.061Z,99803.00
2022-12-24T19:35:01.640Z,99800.42
2022-12-24T19:36:14.426Z,99800.60
2022-12-24T19:37:24.193Z,99802.66
2022-12-24T19:38:35.158Z,99811.86
2022-12-24T19:39:44.431Z,99810.30
2022-12-24T19:40:54.292Z,99806.09
2022-12-24T19:42:03.339Z,99818.83
2022-12-24T19:43:12.387Z,99816.48
2022-12-24T19:45:35.882Z,99811.06
2022-12-24T19:46:45.964Z,99811.73
2022-12-24T19:47:55.135Z,99813.62
2022-12-24T19:49:07.432Z,99812.69
2022-12-24T19:50:18.234Z,99810.79
2022-12-24T19:51:29.509Z,99816.57
2022-12-24T19:53:54.976Z,99814.12
2022-12-24T19:55:04.556Z,99817.20
2022-12-24T19:57:34.600Z,99824.95
2022-12-24T19:58:44.261Z,99824.08
2022-12-24T19:59:53.027Z,99826.25
2022-12-24T20:02:24.414Z,99823.20
2022-12-24T20:03:33.234Z,99822.34
2022-12-24T20:04:42.041Z,99827.98
2022-12-24T20:05:53.474Z,99824.63
2022-12-24T20:08:19.279Z,99830.25
2022-12-24T20:09:30.753Z,99826.16
2022-12-24T20:10:41.524Z,99823.27
2022-12-24T20:11:50.521Z,99831.55
2022-12-24T20:13:05.870Z,99830.03
2022-12-24T20:15:26.674Z,99837.45
2022-12-24T20:16:36.023Z,99841.41
2022-12-24T20:19:05.511Z,99839.86
2022-12-24T20:20:14.915Z,99843.22
2022-12-24T20:22:40.257Z,99835.80
2022-12-24T20:23:49.854Z,99852.66
2022-12-24T20:26:16.028Z,99841.73
2022-12-24T20:28:40.738Z,99841.64
2022-12-24T20:29:51.534Z,99851.66
2022-12-24T20:32:16.103Z,99843.94
2022-12-24T20:33:25.797Z,99855.45
2022-12-24T20:35:51.420Z,99855.87
2022-12-24T20:37:00.623Z,99864.14
2022-12-24T20:38:09.933Z,99865.51
2022-12-24T20:40:33.778Z,99863.27
2022-12-24T20:42:58.674Z,99851.68
2022-12-24T20:44:07.347Z,99863.11
2022-12-24T20:45:16.253Z,99866.14
2022-12-24T20:46:25.641Z,99865.58
2022-12-24T20:47:35.272Z,99855.99
2022-12-24T20:48:44.685Z,99859.11
2022-12-24T20:49:54.373Z,99862.05
2022-12-24T20:51:21.248Z,99869.46
2022-12-24T20:52:26.583Z,99868.26
2022-12-24T20:54:52.878Z,99861.13
2022-12-24T20:56:01.911Z,99859.98
2022-12-24T20:57:10.865Z,99866.44
2022-12-24T20:58:20.623Z,99873.06
2022-12-24T20:59:31.264Z,99869.02
2022-12-24T21:01:56.847Z,99863.16
2022-12-24T21:03:06.211Z,99867.51
2022-12-24T21:04:14.817Z,99861.58
2022-12-24T21:05:24.611Z,99868.95
2022-12-24T21:08:12.529Z,99854.07
2022-12-24T21:09:22.080Z,99870.50
2022-12-24T21:10:34.290Z,99867.59
2022-12-24T21:11:50.317Z,99868.98
2022-12-24T21:12:59.661Z,99870.41
2022-12-24T21:14:08.561Z,99868.77
2022-12-24T21:16:36.350Z,99867.26
2022-12-24T21:17:48.228Z,99870.17
2022-12-24T21:18:56.859Z,99870.47
2022-12-24T21:20:06.872Z,99879.59
2022-12-24T21:21:17.167Z,99875.50
2022-12-24T21:22:26.843Z,99867.70
2022-12-24T21:23:35.602Z,99870.83
2022-12-24T21:24:44.914Z,99874.74
2022-12-24T21:26:04.269Z,99875.95
2022-12-24T21:27:13.815Z,99873.91
2022-12-24T21:28:22.475Z,99876.48
2022-12-24T21:29:32.045Z,99871.33
2022-12-24T21:30:42.347Z,99875.11
2022-12-24T21:31:51.106Z,99876.22
2022-12-24T21:32:59.620Z,99875.59
2022-12-24T21:34:09.281Z,99882.97
2022-12-24T21:35:19.092Z,99882.38
2022-12-24T21:36:29.904Z,99879.08
2022-12-24T21:37:38.769Z,99881.13
2022-12-24T21:38:47.603Z,99884.20
2022-12-24T21:39:56.120Z,99882.81
2022-12-24T21:41:17.884Z,99884.05
2022-12-24T21:42:27.197Z,99888.77
2022-12-24T21:43:36.786Z,99888.56
2022-12-24T21:44:45.408Z,99890.06
2022-12-24T21:45:55.014Z,99888.87
2022-12-24T21:47:04.303Z,99885.80
2022-12-24T21:48:32.728Z,99885.11
2022-12-24T21:50:01.242Z,99897.62
2022-12-24T21:51:11.499Z,99892.53
2022-12-24T21:52:21.238Z,99894.11
2022-12-24T21:53:47.949Z,99889.95
2022-12-24T21:56:11.890Z,99881.59
2022-12-24T21:58:53.849Z,99877.99
2022-12-24T22:01:38.888Z,99879.25
2022-12-24T22:04:11.544Z,99880.25
2022-12-24T22:05:21.405Z,99875.94
2022-12-24T22:06:48.336Z,99877.15
2022-12-24T22:08:15.420Z,99880.53
2022-12-24T22:09:43.163Z,99886.14
2022-12-24T22:12:32.303Z,99876.21
2022-12-24T22:13:41.836Z,99886.49
2022-12-24T22:14:52.624Z,99884.05
2022-12-24T22:16:00.965Z,99895.67
2022-12-24T22:17:10.222Z,99894.70
2022-12-24T22:18:23.208Z,99890.09
2022-12-24T22:19:32.991Z,99885.23
2022-12-24T22:20:43.642Z,99883.78
2022-12-24T22:21:52.326Z,99889.48
2022-12-24T22:23:02.615Z,99895.19
2022-12-24T22:24:11.590Z,99889.95
2022-12-24T22:25:20.340Z,99895.91
2022-12-24T22:27:45.614Z,99896.37
2022-12-24T22:28:54.533Z,99899.11
2022-12-24T22:30:03.932Z,99901.33
2022-12-24T22:32:37.612Z,99894.14
2022-12-24T22:33:46.981Z,99899.48
2022-12-24T22:34:55.512Z,99910.77
2022-12-24T22:36:05.225Z,99911.19
2022-12-24T22:37:13.767Z,99912.17
2022-12-24T22:38:23.461Z,99909.58
2022-12-24T22:39:32.297Z,99912.17
2022-12-24T22:40:42.105Z,99914.45
2022-12-24T22:41:52.932Z,99914.92
2022-12-24T22:43:01.672Z,99909.98
2022-12-24T22:44:10.427Z,99907.89
2022-12-24T22:45:22.420Z,99915.01
2022-12-24T22:47:46.446Z,99907.30
2022-12-24T22:48:55.202Z,99915.94
2022-12-24T22:50:05.572Z,99915.97
2022-12-24T22:52:36.429Z,99912.67
2022-12-24T22:53:48.462Z,99917.02
2022-12-24T22:54:58.672Z,99924.16
2022-12-24T22:57:29.265Z,99915.82
2022-12-24T22:58:39.661Z,99924.58
2022-12-24T22:59:49.034Z,99929.61
2022-12-24T23:00:59.032Z,99929.22
2022-12-24T23:03:25.701Z,99923.16
2022-12-24T23:05:59.059Z,99917.59
2022-12-24T23:07:10.694Z,99923.00
2022-12-24T23:08:22.238Z,99920.09
2022-12-24T23:09:31.078Z,99932.09
2022-12-24T23:10:40.723Z,99931.67
2022-12-24T23:11:50.307Z,99928.36
2022-12-24T23:13:18.387Z,99936.56
2022-12-24T23:14:45.806Z,99935.41
2022-12-24T23:15:54.341Z,99935.41
2022-12-24T23:17:04.153Z,99933.85
2022-12-24T23:18:13.262Z,99942.30
2022-12-24T23:19:21.913Z,99945.59
2022-12-24T23:20:32.320Z,99936.55
2022-12-24T23:21:41.524Z,99944.30
2022-12-24T23:22:51.077Z,99949.72
2022-12-24T23:24:01.288Z,99945.59
2022-12-24T23:25:14.209Z,99946.00
2022-12-24T23:26:24.492Z,99949.78
2022-12-24T23:27:33.121Z,99945.64
2022-12-24T23:28:42.733Z,99950.53
2022-12-24T23:29:51.244Z,99951.82
2022-12-24T23:31:00.837Z,99956.80
2022-12-24T23:32:10.074Z,99952.11
2022-12-24T23:33:19.279Z,99955.12
2022-12-24T23:34:28.024Z,99956.30
2022-12-24T23:35:36.775Z,99968.54
2022-12-24T23:36:45.804Z,99960.41
2022-12-24T23:37:54.422Z,99964.55
2022-12-24T23:39:04.146Z,99963.05
2022-12-24T23:40:14.646Z,99965.80